NK31 weather

Dawn Patrol Aviation Airport
Albion, New York, United States

Public forecast

Using degrees Fahrenheit for public forecast. Weather courtesy of forecast.io.

METAR (pilot weather report)

Closest report is Greater Rochester International Airport, 22.6 nm (41.8 km) ESE. Retrieved 2019/06/25 09:17 UTC (35 minutes ago):

KROC 250917Z 25009KT 6SM RA BR FEW008 BKN049 OVC075 21/19 A2970

TAF (pilot weather forecast)

Closest forecast is Greater Rochester International Airport, 22.6 nm (41.8 km) ESE. Retrieved 2019/06/25 06:30 UTC (3 hours ago):

TAF KROC 250527Z 2506/2606 20008KT 6SM -RA BKN050 FM250900 21010KT 4SM BR VCSH BKN025 FM251130 25012KT P6SM BKN100 FM251400 25015G25KT P6SM BKN250 FM251800 25015G25KT P6SM SCT040 SCT100 FM252200 25012KT P6SM SCT250